Time;durP1;ratioP1;P1;durP2;ratioP2;P2;SDS_P1;SDS_P2;PMS_P1;PMS_P2;Temp;Humidity;BMP_temperature;BMP_pressure;BME280_temperature;BME280_humidity;BME280_pressure;Samples;Min_cycle;Max_cycle;Signal;HPM_P1;HPM_P2
2022/08/10 00:01:15;;;;;;;4.82;1.73;;;;;;;24.99;39.26;102394.63;5029434;27;97345;-66
2022/08/10 00:03:42;;;;;;;3.85;1.50;;;;;;;24.98;39.07;102392.88;5030943;27;96969;-67
2022/08/10 00:06:08;;;;;;;4.10;1.50;;;;;;;25.06;39.23;102400.47;5030069;27;100731;-68
2022/08/10 00:08:35;;;;;;;3.03;1.73;;;;;;;25.06;39.29;102400.47;5029461;27;98887;-68
2022/08/10 00:11:01;;;;;;;4.47;1.75;;;;;;;24.88;39.39;102399.84;5031093;27;97456;-67
2022/08/10 00:13:28;;;;;;;5.55;1.95;;;;;;;24.96;39.21;102401.09;5032410;28;98152;-66
2022/08/10 00:15:54;;;;;;;2.58;1.80;;;;;;;24.92;39.30;102402.28;5027934;27;99000;-66
2022/08/10 00:18:23;;;;;;;5.07;1.98;;;;;;;24.89;39.48;102415.09;5030068;27;98297;-66
2022/08/10 00:20:50;;;;;;;3.72;1.95;;;;;;;24.71;40.11;102401.03;5029519;28;96797;-65
2022/08/10 00:23:16;;;;;;;5.05;2.42;;;;;;;24.79;39.87;102405.91;5030791;27;96915;-66
2022/08/10 00:25:43;;;;;;;4.25;2.10;;;;;;;24.69;39.86;102404.81;5028429;28;99138;-67
2022/08/10 00:28:10;;;;;;;3.08;1.92;;;;;;;24.60;40.39;102396.38;5028722;28;99269;-67
2022/08/10 00:30:36;;;;;;;4.25;1.83;;;;;;;24.63;40.39;102400.69;5028733;28;96881;-66
2022/08/10 00:33:03;;;;;;;4.00;1.88;;;;;;;24.72;40.08;102400.06;5031221;28;97075;-66
2022/08/10 00:35:31;;;;;;;6.45;1.73;;;;;;;24.60;40.32;102396.38;5029551;28;99018;-67
2022/08/10 00:37:57;;;;;;;3.10;1.73;;;;;;;24.63;40.02;102396.16;5029509;28;101117;-66
2022/08/10 00:40:24;;;;;;;3.55;1.80;;;;;;;24.62;40.42;102393.53;5027975;28;97833;-66
2022/08/10 00:42:50;;;;;;;10.77;2.00;;;;;;;24.47;40.71;102397.31;5028835;27;97616;-66
2022/08/10 00:45:16;;;;;;;5.20;2.10;;;;;;;24.52;40.61;102389.75;5030182;27;97768;-66
2022/08/10 00:47:43;;;;;;;11.35;2.83;;;;;;;24.37;40.87;102390.78;5027436;28;98780;-66
2022/08/10 00:50:10;;;;;;;6.28;2.58;;;;;;;24.18;41.40;102385.72;5028057;28;97250;-66
2022/08/10 00:52:38;;;;;;;4.63;2.30;;;;;;;24.13;41.67;102391.44;5030825;27;96825;-66
2022/08/10 00:55:06;;;;;;;4.93;2.35;;;;;;;24.37;41.06;102371.88;5028956;27;99019;-66
2022/08/10 00:57:34;;;;;;;9.38;2.30;;;;;;;24.40;40.92;102372.56;5023803;28;98474;-66
2022/08/10 01:00:00;;;;;;;5.57;2.20;;;;;;;24.48;41.20;102370.16;5029541;27;97305;-66
2022/08/10 01:02:29;;;;;;;4.63;2.25;;;;;;;24.40;41.01;102371.69;5028111;28;97058;-66
2022/08/10 01:04:56;;;;;;;5.72;2.40;;;;;;;24.20;41.76;102376.59;5030784;28;99246;-66
2022/08/10 01:07:33;;;;;;;5.82;1.73;;;;;;;23.92;43.34;102373.09;5026067;28;99292;-65
2022/08/10 01:10:15;;;;;;;8.68;2.65;;;;;;;23.80;42.87;102369.38;5029812;27;97176;-67
2022/08/10 01:12:53;;;;;;;4.57;2.10;;;;;;;24.16;42.11;102366.06;5028900;27;96884;-66
2022/08/10 01:15:26;;;;;;;4.70;2.35;;;;;;;24.22;42.00;102363.84;5031683;28;99467;-66
2022/08/10 01:18:00;;;;;;;4.88;2.20;;;;;;;24.15;41.91;102367.91;5032259;27;97874;-66
2022/08/10 01:20:36;;;;;;;5.55;2.55;;;;;;;24.20;41.67;102365.78;5031786;28;96766;-66
2022/08/10 01:23:37;;;;;;;3.72;2.20;;;;;;;24.12;41.98;102370.81;5031793;28;98776;-67
2022/08/10 01:26:34;;;;;;;4.15;2.20;;;;;;;24.14;42.16;102368.88;5013658;28;99278;-66
2022/08/10 01:29:16;;;;;;;6.82;2.13;;;;;;;24.27;41.75;102368.94;5025752;27;98901;-67
2022/08/10 01:31:49;;;;;;;5.38;2.13;;;;;;;24.26;41.90;102369.03;5034493;28;96833;-66
2022/08/10 01:34:20;;;;;;;8.50;2.28;;;;;;;24.05;42.34;102379.41;5033222;27;96771;-67
2022/08/10 01:36:51;;;;;;;4.63;2.28;;;;;;;23.87;42.58;102373.41;5032028;28;98970;-66
2022/08/10 01:39:23;;;;;;;9.23;2.20;;;;;;;24.04;42.51;102369.56;5032786;28;102688;-67
2022/08/10 01:41:55;;;;;;;2.80;2.13;;;;;;;23.96;42.60;102363.84;5035857;27;97164;-66
2022/08/10 01:44:28;;;;;;;9.10;2.92;;;;;;;24.15;42.04;102362.50;5033190;28;97419;-66
2022/08/10 01:48:27;;;;;;;5.80;2.50;;;;;;;24.14;42.22;102370.72;5026428;28;97929;-66
2022/08/10 01:49:47;;;;;;;4.45;2.20;;;;;;;24.22;42.03;102362.97;5028541;28;98782;-66
2022/08/10 01:52:18;;;;;;;7.03;2.63;;;;;;;24.19;42.21;102364.06;5033301;27;96805;-66
2022/08/10 01:54:46;;;;;;;8.38;2.65;;;;;;;24.11;42.22;102366.38;5034198;27;96881;-66
2022/08/10 01:57:16;;;;;;;4.70;2.53;;;;;;;23.98;42.48;102362.75;5030871;28;99300;-66
2022/08/10 01:59:45;;;;;;;11.32;2.97;;;;;;;23.98;42.69;102360.06;5033308;27;99188;-66
2022/08/10 02:02:15;;;;;;;5.90;2.45;;;;;;;23.94;42.50;102361.25;5032081;28;96880;-65
2022/08/10 02:04:47;;;;;;;7.65;2.42;;;;;;;23.96;42.71;102361.16;5033625;28;97207;-65
2022/08/10 02:07:19;;;;;;;3.67;2.20;;;;;;;23.81;43.08;102366.59;5030718;27;99256;-67
2022/08/10 02:09:49;;;;;;;5.72;2.40;;;;;;;23.78;43.20;102361.38;5033117;28;99569;-66
2022/08/10 02:12:19;;;;;;;5.75;2.47;;;;;;;23.85;43.09;102364.53;5032794;28;96768;-66
2022/08/10 02:14:50;;;;;;;6.70;2.95;;;;;;;23.74;43.67;102364.38;5030951;28;98574;-66
2022/08/10 02:17:21;;;;;;;4.47;2.45;;;;;;;23.72;43.73;102363.59;5031912;28;98969;-66
2022/08/10 02:19:49;;;;;;;12.40;3.42;;;;;;;23.69;43.66;102369.22;5030179;27;98865;-66
2022/08/10 02:22:18;;;;;;;4.13;2.70;;;;;;;23.86;43.41;102381.59;5032478;27;96908;-66
2022/08/10 02:24:46;;;;;;;4.40;2.88;;;;;;;23.80;43.50;102366.69;5033148;28;96800;-67
2022/08/10 02:27:14;;;;;;;5.93;2.70;;;;;;;23.69;43.67;102362.00;5028697;28;99261;-67
2022/08/10 02:29:43;;;;;;;7.45;3.10;;;;;;;23.58;44.03;102366.31;5032575;28;101593;-66
2022/08/10 02:32:12;;;;;;;5.35;2.90;;;;;;;23.64;44.10;102371.31;5031213;27;97125;-66
2022/08/10 02:34:41;;;;;;;7.80;3.20;;;;;;;23.68;43.74;102373.75;5031405;27;96838;-66
2022/08/10 02:37:11;;;;;;;6.45;2.58;;;;;;;23.51;44.39;102373.94;5031266;27;97629;-66
2022/08/10 02:39:37;;;;;;;8.27;2.60;;;;;;;23.73;43.68;102368.03;5032135;28;98198;-66
2022/08/10 02:42:12;;;;;;;5.63;2.85;;;;;;;23.48;44.38;102365.19;5032757;27;97004;-66
2022/08/10 02:44:42;;;;;;;5.68;2.67;;;;;;;23.65;44.22;102375.75;5034259;27;96835;-66
2022/08/10 02:47:12;;;;;;;4.13;2.65;;;;;;;23.60;44.42;102369.81;5029465;27;99088;-66
2022/08/10 02:49:43;;;;;;;6.43;3.35;;;;;;;23.59;44.42;102365.38;5029963;28;98812;-66
2022/08/10 02:52:16;;;;;;;4.43;2.70;;;;;;;23.44;44.83;102368.03;5032602;27;96765;-66
2022/08/10 02:54:50;;;;;;;5.50;2.97;;;;;;;23.41;44.80;102370.97;5029299;27;96988;-66
2022/08/10 02:57:22;;;;;;;6.03;3.17;;;;;;;23.51;44.54;102375.78;5025915;28;99530;-66
2022/08/10 02:59:50;;;;;;;8.18;3.38;;;;;;;23.47;44.40;102366.13;5030016;28;101377;-69
2022/08/10 03:02:25;;;;;;;4.93;3.25;;;;;;;23.24;45.06;102372.97;5033222;27;96770;-66
2022/08/10 03:04:56;;;;;;;8.27;3.17;;;;;;;22.99;45.71;102371.81;5031773;27;96884;-67
2022/08/10 03:07:25;;;;;;;9.18;3.08;;;;;;;23.26;45.11;102374.63;5029160;28;99268;-66
2022/08/10 03:09:53;;;;;;;7.38;3.13;;;;;;;23.38;44.75;102375.66;5031006;27;99151;-67
2022/08/10 03:12:21;;;;;;;5.18;2.78;;;;;;;23.36;44.97;102378.47;5031606;28;96935;-67
2022/08/10 03:14:50;;;;;;;9.75;3.30;;;;;;;23.21;45.37;102370.47;5032313;28;96803;-67
2022/08/10 03:17:17;;;;;;;5.03;3.47;;;;;;;23.10;45.55;102373.88;5030402;28;98970;-68
2022/08/10 03:19:45;;;;;;;8.50;3.55;;;;;;;23.25;45.21;102374.72;5029138;28;101839;-67
2022/08/10 03:22:15;;;;;;;5.47;3.35;;;;;;;23.18;45.56;102379.63;5028861;28;99055;-67
2022/08/10 03:24:44;;;;;;;4.85;3.15;;;;;;;23.14;45.58;102372.69;5033466;28;96842;-67
2022/08/10 03:27:12;;;;;;;8.65;3.42;;;;;;;23.27;45.41;102368.25;5029953;27;99581;-67
2022/08/10 03:29:39;;;;;;;4.07;2.83;;;;;;;23.17;45.59;102369.78;5029799;27;98806;-67
2022/08/10 03:32:07;;;;;;;5.82;3.47;;;;;;;23.12;45.60;102368.34;5031926;27;96716;-66
2022/08/10 03:34:34;;;;;;;8.90;3.38;;;;;;;23.06;45.74;102364.22;5030119;28;96827;-67
2022/08/10 03:37:00;;;;;;;7.18;3.45;;;;;;;23.18;45.50;102366.13;5029392;27;99271;-67
2022/08/10 03:39:28;;;;;;;6.93;3.42;;;;;;;23.03;46.01;102369.81;5029905;28;98885;-67
2022/08/10 03:41:59;;;;;;;8.20;3.10;;;;;;;22.99;46.08;102369.13;5031329;28;97098;-68
2022/08/10 03:44:30;;;;;;;10.13;3.63;;;;;;;23.07;45.93;102371.34;5028107;28;97496;-67
2022/08/10 03:46:59;;;;;;;5.43;3.80;;;;;;;23.14;45.70;102375.41;5029314;28;99274;-67
2022/08/10 03:49:27;;;;;;;6.10;3.30;;;;;;;23.14;45.88;102372.69;5027929;28;99040;-68
2022/08/10 03:51:55;;;;;;;9.38;4.20;;;;;;;23.10;45.90;102370.31;5031161;27;98995;-68
2022/08/10 03:54:22;;;;;;;7.28;3.20;;;;;;;23.06;46.05;102366.91;5032343;27;96927;-67
2022/08/10 03:56:50;;;;;;;10.45;3.17;;;;;;;23.11;45.82;102370.19;5028917;28;99284;-67
2022/08/10 03:59:17;;;;;;;8.82;3.17;;;;;;;22.98;46.45;102374.59;5030573;27;99052;-67
2022/08/10 04:01:45;;;;;;;5.47;3.33;;;;;;;23.04;46.23;102372.38;5030042;27;96998;-66
2022/08/10 04:04:11;;;;;;;6.18;3.60;;;;;;;23.07;46.29;102379.44;5029702;28;96953;-67
2022/08/10 04:06:38;;;;;;;7.75;3.60;;;;;;;23.10;46.02;102376.56;5019561;28;98964;-66
2022/08/10 04:09:05;;;;;;;9.18;3.55;;;;;;;23.18;46.00;102371.53;5031222;27;98916;-67
2022/08/10 04:11:31;;;;;;;7.78;3.70;;;;;;;23.32;45.58;102376.06;5029904;28;96855;-66
2022/08/10 04:13:59;;;;;;;12.65;3.80;;;;;;;23.25;45.58;102382.78;5029673;28;97143;-66
2022/08/10 04:16:25;;;;;;;6.53;3.40;;;;;;;23.29;45.56;102374.44;5027844;28;99111;-66
2022/08/10 04:18:52;;;;;;;5.28;3.33;;;;;;;23.40;45.46;102379.13;5030619;27;99168;-66
2022/08/10 04:21:23;;;;;;;8.48;3.60;;;;;;;23.45;45.35;102383.28;5029602;28;97055;-66
2022/08/10 04:23:51;;;;;;;6.85;3.45;;;;;;;23.38;45.67;102381.06;5031736;27;97556;-65
2022/08/10 04:26:17;;;;;;;7.82;4.00;;;;;;;23.39;45.34;102378.28;5030186;27;100931;-67
2022/08/10 04:28:44;;;;;;;9.63;3.97;;;;;;;23.30;45.84;102384.25;5030125;27;99337;-66
2022/08/10 04:31:15;;;;;;;12.02;3.92;;;;;;;23.41;45.72;102388.97;5028736;28;96872;-66
2022/08/10 04:33:45;;;;;;;16.13;4.00;;;;;;;23.51;45.46;102397.38;5029394;27;96820;-66
2022/08/10 04:36:13;;;;;;;8.15;4.43;;;;;;;23.37;45.62;102390.97;5029934;27;99851;-66
2022/08/10 04:38:41;;;;;;;11.82;3.85;;;;;;;23.62;45.15;102384.06;5029653;28;99044;-66
2022/08/10 04:41:07;;;;;;;10.00;3.83;;;;;;;23.60;45.23;102399.47;5030772;27;98669;-66
2022/08/10 04:43:34;;;;;;;7.50;4.00;;;;;;;23.69;45.07;102394.38;5030653;28;97369;-67
2022/08/10 04:46:00;;;;;;;9.23;4.35;;;;;;;23.75;44.87;102385.88;5025924;28;98985;-66
2022/08/10 04:48:28;;;;;;;11.52;3.92;;;;;;;23.75;45.13;102393.09;5023287;27;99178;-66
2022/08/10 04:50:55;;;;;;;6.43;3.85;;;;;;;23.92;44.55;102400.09;5028881;28;97069;-67
2022/08/10 04:53:22;;;;;;;9.70;3.95;;;;;;;23.88;44.66;102403.97;5031402;27;96946;-66
2022/08/10 04:55:48;;;;;;;11.13;3.92;;;;;;;24.03;44.21;102403.81;5028423;27;98820;-66
2022/08/10 04:58:15;;;;;;;5.45;4.00;;;;;;;24.07;44.09;102399.09;5029952;27;99291;-66
2022/08/10 05:00:41;;;;;;;6.40;4.28;;;;;;;24.11;44.15;102409.56;5027121;28;96945;-66
2022/08/10 05:03:07;;;;;;;11.43;4.32;;;;;;;24.16;43.99;102401.16;5030735;27;97226;-66
2022/08/10 05:05:35;;;;;;;10.32;4.38;;;;;;;24.15;43.83;102411.13;5026268;28;99291;-66
2022/08/10 05:08:02;;;;;;;10.60;5.45;;;;;;;23.93;44.47;102405.41;5026214;28;99411;-66
2022/08/10 05:10:28;;;;;;;10.13;4.72;;;;;;;24.07;44.02;102415.28;5025782;28;97747;-66
2022/08/10 05:12:54;;;;;;;10.55;4.65;;;;;;;24.20;43.65;102414.41;5031004;27;97156;-68
2022/08/10 05:15:22;;;;;;;11.38;4.60;;;;;;;24.01;44.29;102413.88;5029417;28;99036;-68
2022/08/10 05:17:48;;;;;;;5.90;3.70;;;;;;;24.10;44.40;102412.38;5025575;28;97864;-67
2022/08/10 05:20:15;;;;;;;7.35;4.30;;;;;;;24.21;44.06;102410.75;5027889;28;97032;-66
2022/08/10 05:22:44;;;;;;;8.32;4.10;;;;;;;24.34;43.77;102418.03;5028556;28;98614;-66
2022/08/10 05:25:13;;;;;;;10.25;4.72;;;;;;;24.45;43.26;102419.03;5029521;27;99918;-67
2022/08/10 05:27:40;;;;;;;9.05;4.95;;;;;;;24.26;43.55;102423.06;5027235;28;99199;-66
2022/08/10 05:30:07;;;;;;;6.28;4.00;;;;;;;24.23;43.83;102422.28;5028714;27;96761;-66
2022/08/10 05:32:35;;;;;;;9.90;4.55;;;;;;;24.42;43.44;102413.81;5026549;27;96963;-67
2022/08/10 05:35:01;;;;;;;6.85;4.18;;;;;;;24.53;43.42;102418.50;5027467;27;98480;-67
2022/08/10 05:37:29;;;;;;;7.45;3.88;;;;;;;24.68;43.06;102420.16;5028280;28;99278;-67
2022/08/10 05:39:57;;;;;;;7.70;4.22;;;;;;;24.79;42.97;102420.31;5024092;28;96883;-67
2022/08/10 05:42:25;;;;;;;10.98;3.92;;;;;;;25.45;41.72;102426.50;5027851;28;96838;-67
2022/08/10 05:44:52;;;;;;;8.85;3.85;;;;;;;26.21;40.29;102424.47;5025443;28;99401;-67
2022/08/10 05:47:18;;;;;;;129.30;12.85;;;;;;;26.33;39.46;102425.44;5025066;28;98711;-67
2022/08/10 05:49:47;;;;;;;9.30;4.13;;;;;;;26.12;39.72;102427.91;5030823;28;97096;-66
2022/08/10 05:52:13;;;;;;;9.93;3.70;;;;;;;25.63;40.93;102428.78;5032336;27;96960;-66
2022/08/10 05:54:40;;;;;;;9.82;4.55;;;;;;;25.57;41.19;102431.03;5029816;27;99771;-66
2022/08/10 05:57:08;;;;;;;11.52;4.32;;;;;;;25.27;41.94;102428.69;5026736;28;99138;-66
2022/08/10 05:59:36;;;;;;;32.53;7.03;;;;;;;25.50;41.38;102432.44;5030394;27;97176;-67
2022/08/10 06:02:04;;;;;;;9.32;4.20;;;;;;;25.48;41.26;102432.56;5028412;27;97919;-67
2022/08/10 06:04:36;;;;;;;17.63;4.45;;;;;;;25.60;41.24;102436.28;5030990;27;99296;-67
2022/08/10 06:07:04;;;;;;;15.38;3.92;;;;;;;25.73;41.24;102437.97;5029661;28;98856;-67
2022/08/10 06:09:32;;;;;;;14.55;3.80;;;;;;;25.67;41.34;102438.41;5031005;28;97689;-68
2022/08/10 06:12:01;;;;;;;11.18;4.25;;;;;;;25.94;40.62;102440.06;5033956;27;97293;-68
2022/08/10 06:17:18;;;;;;;12.55;4.03;;;;;;;25.82;40.75;102435.56;5027049;27;98188;-67
2022/08/10 06:19:45;;;;;;;16.45;4.10;;;;;;;26.16;40.59;102437.50;5032511;28;97330;-68
2022/08/10 06:22:12;;;;;;;18.10;3.92;;;;;;;26.15;40.44;102442.06;5033243;27;97742;-67
2022/08/10 06:24:41;;;;;;;9.82;3.85;;;;;;;26.10;40.21;102438.84;5032689;28;99476;-67
2022/08/10 06:27:07;;;;;;;9.52;3.40;;;;;;;26.23;40.00;102438.78;5031037;27;99224;-68
2022/08/10 06:29:41;;;;;;;13.85;3.80;;;;;;;26.26;39.83;102438.56;5031652;27;97061;-67
2022/08/10 06:32:09;;;;;;;13.30;4.10;;;;;;;26.36;39.63;102436.91;5033881;28;96922;-67
2022/08/10 06:34:39;;;;;;;10.73;3.22;;;;;;;26.25;39.50;102439.59;5032717;27;99030;-66
2022/08/10 06:37:08;;;;;;;27.48;5.18;;;;;;;26.17;39.99;102434.69;5031714;27;99436;-67
2022/08/10 06:39:35;;;;;;;21.60;4.25;;;;;;;25.87;40.47;102439.66;5032685;28;97246;-66
2022/08/10 06:42:14;;;;;;;35.72;5.28;;;;;;;26.75;39.14;102438.44;5033051;27;97129;-67
2022/08/10 06:44:50;;;;;;;32.67;4.38;;;;;;;27.60;37.38;102441.69;5029457;28;99489;-67
2022/08/10 06:47:19;;;;;;;9.48;4.38;;;;;;;28.10;36.55;102429.38;5028595;28;98245;-66
2022/08/10 06:49:48;;;;;;;11.63;3.30;;;;;;;28.07;36.05;102430.53;5031335;27;97230;-66
2022/08/10 06:52:16;;;;;;;6.35;2.97;;;;;;;27.87;36.42;102431.31;5031638;28;97277;-66
2022/08/10 06:54:44;;;;;;;15.85;3.90;;;;;;;27.89;36.59;102433.91;5030567;28;97619;-67
2022/08/10 06:57:13;;;;;;;9.18;2.85;;;;;;;27.26;37.76;102430.78;5029351;27;99255;-67
2022/08/10 06:59:45;;;;;;;7.53;2.70;;;;;;;26.95;38.45;102431.50;5030777;28;97132;-66
2022/08/10 07:02:15;;;;;;;7.03;3.13;;;;;;;26.90;38.52;102431.84;5031269;27;97192;-66
2022/08/10 07:04:46;;;;;;;9.73;3.35;;;;;;;27.08;38.46;102434.97;5029642;28;99272;-66
2022/08/10 07:07:18;;;;;;;7.63;3.20;;;;;;;27.34;37.93;102424.75;5030293;27;98984;-67
2022/08/10 07:09:45;;;;;;;10.30;3.42;;;;;;;27.22;37.86;102423.91;5031077;28;97084;-66
2022/08/10 07:12:14;;;;;;;8.10;3.40;;;;;;;27.34;37.54;102427.47;5028805;27;97139;-67
2022/08/10 07:14:45;;;;;;;8.85;2.92;;;;;;;27.44;37.41;102424.91;5030430;27;99513;-66
2022/08/10 07:17:13;;;;;;;10.85;3.63;;;;;;;27.45;37.32;102413.03;5029622;27;99061;-66
2022/08/10 07:19:42;;;;;;;10.10;3.53;;;;;;;27.61;36.71;102419.00;5030191;28;97426;-67
2022/08/10 07:22:10;;;;;;;4.57;2.83;;;;;;;28.12;35.86;102421.97;5030950;28;97819;-66
2022/08/10 07:24:41;;;;;;;4.68;2.95;;;;;;;28.25;35.74;102424.56;5030361;28;98192;-66
2022/08/10 07:27:09;;;;;;;9.05;2.60;;;;;;;28.32;35.47;102420.34;5029268;27;100472;-66
2022/08/10 07:29:36;;;;;;;7.35;2.53;;;;;;;28.67;34.78;102423.66;5030158;28;98641;-67
2022/08/10 07:32:06;;;;;;;8.57;2.70;;;;;;;28.91;34.42;102420.69;5029837;27;97186;-67
2022/08/10 07:34:36;;;;;;;7.72;3.10;;;;;;;29.02;34.19;102417.91;5030212;28;98993;-66
2022/08/10 07:37:05;;;;;;;10.50;3.17;;;;;;;28.73;34.64;102423.13;5029516;28;99123;-66
2022/08/10 07:39:35;;;;;;;13.07;2.85;;;;;;;29.14;33.81;102421.44;5030643;28;97369;-66
2022/08/10 07:42:04;;;;;;;5.93;2.92;;;;;;;29.38;33.11;102419.28;5031187;28;96965;-66
2022/08/10 07:44:32;;;;;;;6.90;2.65;;;;;;;29.34;33.42;102415.13;5029664;28;98982;-66
2022/08/10 07:47:02;;;;;;;12.85;3.50;;;;;;;28.99;33.73;102418.19;5029269;28;97573;-66
2022/08/10 07:49:35;;;;;;;9.13;3.53;;;;;;;28.92;34.01;102423.28;5029905;28;97295;-66
2022/08/10 07:52:06;;;;;;;13.15;3.53;;;;;;;28.97;33.59;102422.88;5030872;27;97199;-66
2022/08/10 07:54:38;;;;;;;10.90;2.80;;;;;;;28.78;33.79;102425.47;5026804;28;102070;-66
2022/08/10 07:57:09;;;;;;;6.30;2.58;;;;;;;28.90;33.16;102419.84;5029112;27;100106;-66
2022/08/10 07:59:37;;;;;;;10.10;2.72;;;;;;;29.42;32.58;102423.44;5028771;27;97551;-67
2022/08/10 08:02:08;;;;;;;7.65;2.50;;;;;;;29.46;32.43;102432.22;5024478;27;97177;-66
2022/08/10 08:04:36;;;;;;;6.70;2.67;;;;;;;29.39;32.45;102420.16;5019358;27;99728;-67
2022/08/10 08:07:03;;;;;;;7.28;2.42;;;;;;;29.55;32.27;102421.34;5029925;27;98819;-67
2022/08/10 08:09:31;;;;;;;7.65;2.58;;;;;;;29.37;32.06;102420.28;5029612;28;97271;-66
2022/08/10 08:11:59;;;;;;;5.90;1.92;;;;;;;29.36;31.71;102415.81;5030543;27;96894;-66
2022/08/10 08:14:26;;;;;;;7.00;1.98;;;;;;;29.57;31.11;102416.63;5029481;28;99284;-66
2022/08/10 08:16:54;;;;;;;6.65;2.10;;;;;;;29.70;31.35;102417.25;5029223;27;98612;-67
2022/08/10 08:19:21;;;;;;;7.35;2.60;;;;;;;29.41;31.41;102412.69;5029109;27;96907;-67
2022/08/10 08:21:50;;;;;;;6.00;2.30;;;;;;;29.58;30.98;102414.78;5031266;27;96932;-67
2022/08/10 08:24:19;;;;;;;8.13;5.10;;;;;;;29.99;30.16;102419.22;5030397;27;98998;-67
2022/08/10 08:26:47;;;;;;;5.70;2.92;;;;;;;29.81;30.44;102409.94;5029621;27;101182;-67
2022/08/10 08:29:15;;;;;;;2.10;1.90;;;;;;;29.71;30.11;102408.09;5028414;27;97557;-66
2022/08/10 08:31:44;;;;;;;5.57;1.70;;;;;;;29.88;29.94;102406.53;5030744;27;97106;-66
2022/08/10 08:34:12;;;;;;;3.20;1.80;;;;;;;29.85;29.91;102409.56;5029692;27;99239;-67
2022/08/10 08:36:40;;;;;;;6.20;1.63;;;;;;;29.96;29.04;102400.41;5027440;27;97747;-67
2022/08/10 08:39:08;;;;;;;4.13;1.83;;;;;;;30.11;28.59;102407.19;5027093;27;97158;-67
2022/08/10 08:41:53;;;;;;;5.63;1.70;;;;;;;30.17;28.85;102405.75;5030288;27;97293;-67
2022/08/10 08:44:31;;;;;;;5.93;1.33;;;;;;;30.23;28.15;102405.19;5028271;28;98904;-67
2022/08/10 08:47:22;;;;;;;5.10;2.00;;;;;;;30.12;28.62;102410.78;5027146;28;99385;-67
2022/08/10 08:50:00;;;;;;;3.63;1.45;;;;;;;29.84;28.58;102405.09;5029672;27;98385;-67
2022/08/10 08:52:38;;;;;;;4.72;1.90;;;;;;;30.06;28.32;102406.78;5030004;27;97316;-67
2022/08/10 08:55:22;;;;;;;8.05;2.22;;;;;;;30.25;28.62;102404.06;5029329;27;99115;-66
2022/08/10 08:57:55;;;;;;;4.10;1.83;;;;;;;30.41;27.80;102398.88;5024571;27;99168;-67
2022/08/10 09:00:36;;;;;;;3.30;1.70;;;;;;;30.06;28.07;102399.41;5028787;27;96803;-67
2022/08/10 09:03:16;;;;;;;6.55;1.83;;;;;;;29.95;27.32;102404.16;5029369;27;96832;-67
2022/08/10 09:05:54;;;;;;;5.13;1.60;;;;;;;30.31;26.91;102400.75;5028627;27;99006;-66
2022/08/10 09:08:40;;;;;;;3.80;1.75;;;;;;;30.01;28.24;102399.00;5026399;27;98972;-67
2022/08/10 09:11:26;;;;;;;3.85;1.83;;;;;;;30.09;27.77;102399.16;5025879;27;96843;-66
2022/08/10 09:14:00;;;;;;;2.33;1.73;;;;;;;30.26;27.42;102388.56;5025620;28;96995;-66
2022/08/10 09:16:32;;;;;;;4.38;1.55;;;;;;;30.29;27.48;102389.13;5027398;27;98204;-67
2022/08/10 09:19:07;;;;;;;3.55;1.40;;;;;;;30.15;26.39;102395.00;5027626;27;99350;-66
2022/08/10 09:21:42;;;;;;;4.35;1.45;;;;;;;30.32;26.24;102394.31;5027436;27;96860;-67
2022/08/10 09:24:14;;;;;;;4.15;2.10;;;;;;;30.30;26.47;102396.31;5030300;27;97214;-66
2022/08/10 09:26:48;;;;;;;2.58;1.60;;;;;;;30.17;26.66;102390.28;5023538;28;99192;-67
2022/08/10 09:29:22;;;;;;;4.20;2.58;;;;;;;30.15;26.33;102391.41;5028143;27;99271;-67
2022/08/10 09:31:56;;;;;;;6.07;1.67;;;;;;;29.40;27.19;102384.63;5028264;27;96895;-66
2022/08/10 09:34:30;;;;;;;4.15;1.75;;;;;;;28.77;28.48;102386.53;5025511;27;96811;-67
2022/08/10 09:37:03;;;;;;;1.92;1.50;;;;;;;29.56;27.84;102389.53;5031612;27;99630;-66
2022/08/10 09:39:40;;;;;;;3.13;1.10;;;;;;;29.61;26.46;102381.78;5032020;28;99281;-66
2022/08/10 09:42:14;;;;;;;4.40;1.33;;;;;;;30.08;25.73;102383.78;5032037;28;96707;-68
2022/08/10 09:44:51;;;;;;;4.50;1.48;;;;;;;30.25;24.83;102379.53;5030386;28;96839;-67
2022/08/10 09:47:31;;;;;;;3.15;1.25;;;;;;;30.14;24.61;102379.63;5031407;27;98943;-67
2022/08/10 09:50:08;;;;;;;5.03;1.27;;;;;;;30.37;24.60;102372.06;5029876;28;99065;-66
2022/08/10 09:52:47;;;;;;;1.75;1.17;;;;;;;30.27;23.77;102374.75;5030704;28;97536;-66
2022/08/10 09:55:20;;;;;;;1.70;1.48;;;;;;;30.33;24.38;102366.00;5032788;27;97659;-66
2022/08/10 09:58:00;;;;;;;5.97;1.38;;;;;;;30.03;24.74;102363.44;5028851;27;99465;-68
2022/08/10 10:00:32;;;;;;;2.72;1.17;;;;;;;29.99;24.68;102365.59;5028450;27;98034;-67
2022/08/10 10:03:11;;;;;;;2.88;1.27;;;;;;;29.95;24.96;102360.53;5033561;27;96882;-67
2022/08/10 10:05:48;;;;;;;1.70;1.25;;;;;;;30.20;25.25;102359.97;5030455;27;97009;-66
2022/08/10 10:08:17;;;;;;;;;;;;;;;30.41;25.39;102368.00;5031972;27;99059;-67
2022/08/10 10:10:55;;;;;;;4.05;1.48;;;;;;;30.60;24.35;102361.72;5036271;27;98917;-66
2022/08/10 10:13:34;;;;;;;10.30;4.15;;;;;;;30.68;24.58;102356.38;5030002;27;97457;-67
2022/08/10 10:16:15;;;;;;;4.00;1.50;;;;;;;30.75;24.66;102347.47;5030874;27;96715;-67
2022/08/10 10:18:46;;;;;;;5.20;1.65;;;;;;;30.89;23.67;102348.88;5029853;27;99633;-66
2022/08/10 10:21:20;;;;;;;6.50;1.90;;;;;;;30.56;24.17;102354.84;5027952;28;100154;-67
2022/08/10 10:23:57;;;;;;;3.88;1.85;;;;;;;30.52;23.39;102356.16;5032673;27;97571;-66
2022/08/10 10:26:32;;;;;;;3.80;1.55;;;;;;;30.56;23.37;102346.66;5031801;27;97130;-67
2022/08/10 10:29:08;;;;;;;2.50;1.38;;;;;;;30.41;24.32;102343.47;5027594;27;99065;-66
2022/08/10 10:31:41;;;;;;;2.42;1.25;;;;;;;30.63;23.44;102342.34;5028792;28;99035;-66
2022/08/10 10:34:17;;;;;;;3.33;1.00;;;;;;;30.59;23.09;102340.91;5032627;27;96860;-67
2022/08/10 10:36:45;;;;;;;3.40;1.23;;;;;;;30.23;23.19;102331.56;5031514;27;98764;-66
2022/08/10 10:39:15;;;;;;;2.90;1.33;;;;;;;30.40;23.53;102330.84;5031501;27;98895;-67
2022/08/10 10:41:48;;;;;;;3.08;1.42;;;;;;;30.36;23.21;102327.56;5032161;27;98883;-67
2022/08/10 10:44:41;;;;;;;1.00;0.93;;;;;;;30.54;22.54;102326.84;5030719;27;97279;-67
2022/08/10 10:47:29;;;;;;;1.58;1.10;;;;;;;30.72;22.45;102319.63;5023815;27;99235;-67
2022/08/10 10:50:05;;;;;;;1.10;1.00;;;;;;;30.54;22.69;102315.91;5010668;27;99299;-67
2022/08/10 10:52:42;;;;;;;5.63;1.33;;;;;;;30.56;22.42;102313.91;5007113;28;98874;-66
2022/08/10 10:55:16;;;;;;;3.13;1.35;;;;;;;30.12;22.80;102320.84;5015096;27;98455;-65
2022/08/10 10:57:54;;;;;;;2.60;1.27;;;;;;;30.23;23.04;102318.81;5026143;27;96866;-66
2022/08/10 11:00:25;;;;;;;6.00;1.27;;;;;;;29.89;22.94;102320.19;5029531;27;99719;-66
2022/08/10 11:03:11;;;;;;;3.33;1.33;;;;;;;29.96;23.68;102316.81;5036233;27;98812;-67
2022/08/10 11:05:46;;;;;;;1.60;1.30;;;;;;;30.15;23.34;102324.13;5027020;27;97044;-66
2022/08/10 11:08:16;;;;;;;5.63;1.45;;;;;;;30.34;22.91;102315.91;5030596;27;96865;-66
2022/08/10 11:10:46;;;;;;;6.63;1.20;;;;;;;30.38;22.75;102313.78;5030581;27;98983;-67
2022/08/10 11:13:23;;;;;;;1.70;1.20;;;;;;;30.29;22.49;102303.72;5030768;28;96873;-67
2022/08/10 11:15:59;;;;;;;1.17;1.00;;;;;;;30.31;22.34;102310.78;5029182;27;97141;-66
2022/08/10 11:18:32;;;;;;;2.00;1.27;;;;;;;30.39;21.42;102308.16;5030588;28;97856;-67
2022/08/10 11:21:09;;;;;;;2.42;0.90;;;;;;;30.53;21.48;102304.16;5029425;27;99252;-66
2022/08/10 11:23:43;;;;;;;3.10;1.17;;;;;;;30.62;21.30;102299.69;5029553;28;99252;-67
2022/08/10 11:26:13;;;;;;;3.08;1.02;;;;;;;30.53;21.00;102292.38;5030006;28;97196;-67
2022/08/10 11:28:44;;;;;;;1.60;1.00;;;;;;;30.53;21.11;102295.09;5032581;27;96901;-67
2022/08/10 11:31:21;;;;;;;3.35;1.00;;;;;;;30.33;21.65;102299.69;5030893;27;99739;-66
2022/08/10 11:33:53;;;;;;;5.72;1.08;;;;;;;30.32;22.16;102296.13;5028485;28;99503;-66
2022/08/10 11:36:27;;;;;;;4.38;1.58;;;;;;;30.27;22.75;102298.41;5029775;28;97821;-66
2022/08/10 11:39:00;;;;;;;6.32;1.40;;;;;;;30.35;22.34;102284.06;5031304;28;97141;-66
2022/08/10 11:41:33;;;;;;;0.90;0.90;;;;;;;30.20;21.65;102291.81;5029681;28;100540;-67
2022/08/10 11:44:08;;;;;;;4.38;1.25;;;;;;;30.38;21.30;102287.38;5027366;28;99540;-67